Time,TemperatureF,DewpointF,PressureIn,WindDirection,WindDirectionDegrees,WindSpeedMPH,WindSpeedGustMPH,Humidity,HourlyPrecipIn,Conditions,Clouds,dailyrainin,SoftwareType,DateUTC
2013-01-11 00:00:00,55.5,54.9,30.38,SE,145,10.0,10.0,98,0.00,CLR,,0.06,WeatherDisplay:10.37,2013-01-11 05:00:00,
2013-01-11 00:01:00,55.5,54.9,30.37,East,80,10.4,10.4,98,0.00,RA,,0.00,WeatherDisplay:10.37,2013-01-11 05:01:00,
2013-01-11 00:03:00,55.5,54.9,30.37,ESE,108,10.4,10.4,98,0.00,RA,,0.00,WeatherDisplay:10.37,2013-01-11 05:03:00,
2013-01-11 00:08:00,55.5,54.9,30.37,SE,128,1.1,0.0,98,0.00,RA,,0.00,WeatherDisplay:10.37,2013-01-11 05:08:00,
2013-01-11 00:13:00,55.6,55.0,30.38,ESE,119,3.5,3.5,98,0.00,CLR,,0.00,WeatherDisplay:10.37,2013-01-11 05:13:00,
2013-01-11 00:18:00,55.6,55.0,30.37,ENE,76,4.6,4.6,98,0.01,RA,,0.01,WeatherDisplay:10.37,2013-01-11 05:18:00,
2013-01-11 00:23:00,55.6,55.0,30.36,SE,124,2.3,2.3,98,0.01,RA,,0.01,WeatherDisplay:10.37,2013-01-11 05:23:00,
2013-01-11 00:28:00,55.7,55.1,30.36,NE,52,2.3,2.3,98,0.01,CLR,,0.01,WeatherDisplay:10.37,2013-01-11 05:28:00,
2013-01-11 00:33:00,55.7,55.1,30.36,SE,132,1.1,1.1,98,0.01,CLR,,0.01,WeatherDisplay:10.37,2013-01-11 05:33:00,
2013-01-11 00:38:00,55.7,55.1,30.37,ESE,117,3.5,3.5,98,0.01,CLR,,0.01,WeatherDisplay:10.37,2013-01-11 05:38:00,
2013-01-11 00:43:00,55.8,55.2,30.37,ENE,63,1.1,0.0,98,0.01,CLR,,0.01,WeatherDisplay:10.37,2013-01-11 05:43:00,
2013-01-11 00:48:00,55.9,55.3,30.36,East,96,3.5,3.5,98,0.01,CLR,,0.01,WeatherDisplay:10.37,2013-01-11 05:48:00,
2013-01-11 00:53:00,55.9,55.3,30.36,NNE,32,3.5,3.5,98,0.01,CLR,,0.01,WeatherDisplay:10.37,2013-01-11 05:53:00,
2013-01-11 00:58:00,55.9,55.3,30.36,SE,134,4.6,4.6,98,0.01,CLR,,0.01,WeatherDisplay:10.37,2013-01-11 05:58:00,
2013-01-11 01:03:00,55.9,55.3,30.36,NNW,334,1.1,1.1,98,0.01,CLR,,0.01,WeatherDisplay:10.37,2013-01-11 06:03:00,
2013-01-11 01:08:00,56.0,55.4,30.35,ESE,107,0.0,0.1,98,0.01,CLR,,0.01,WeatherDisplay:10.37,2013-01-11 06:08:00,
2013-01-11 01:13:00,56.0,55.4,30.34,North,10,1.1,1.1,98,0.01,CLR,,0.01,WeatherDisplay:10.37,2013-01-11 06:13:00,
2013-01-11 01:18:00,56.0,55.4,30.34,East,86,4.0,4.0,98,0.00,CLR,,0.01,WeatherDisplay:10.37,2013-01-11 06:18:00,
2013-01-11 01:23:00,56.0,55.4,30.34,SE,124,2.3,2.3,98,0.01,RA,,0.02,WeatherDisplay:10.37,2013-01-11 06:23:00,
2013-01-11 01:28:00,56.0,55.4,30.34,ESE,123,0.0,0.0,98,0.01,RA,,0.02,WeatherDisplay:10.37,2013-01-11 06:28:00,
2013-01-11 01:33:00,56.0,55.4,30.33,East,83,1.1,1.1,98,0.01,,,0.02,WeatherDisplay:10.37,2013-01-11 06:33:00,
2013-01-11 01:38:00,56.1,55.8,30.33,ESE,117,3.5,3.5,99,0.01,CLR,,0.02,WeatherDisplay:10.37,2013-01-11 06:38:00,
2013-01-11 01:43:00,56.2,55.9,30.33,West,272,2.3,0.0,99,0.02,RA,,0.03,WeatherDisplay:10.37,2013-01-11 06:43:00,
2013-01-11 01:48:00,56.2,55.9,30.33,East,88,1.1,1.1,99,0.03,RA,,0.04,WeatherDisplay:10.37,2013-01-11 06:48:00,
2013-01-11 01:53:00,56.2,55.9,30.33,ENE,75,2.3,2.3,99,0.03,RA,,0.04,WeatherDisplay:10.37,2013-01-11 06:53:00,
2013-01-11 01:58:00,56.3,56.0,30.33,ESE,109,1.1,1.1,99,0.03,,,0.04,WeatherDisplay:10.37,2013-01-11 06:58:00,
2013-01-11 02:03:00,56.3,56.0,30.33,ESE,105,3.5,0.0,99,0.03,CLR,,0.04,WeatherDisplay:10.37,2013-01-11 07:03:00,
2013-01-11 02:08:00,56.3,56.0,30.33,ESE,110,2.3,2.3,99,0.04,RA,,0.05,WeatherDisplay:10.37,2013-01-11 07:08:00,
2013-01-11 02:13:00,56.4,56.1,30.33,East,99,1.1,1.1,99,0.04,RA,,0.05,WeatherDisplay:10.37,2013-01-11 07:13:00,
2013-01-11 02:18:00,56.5,56.2,30.32,ESE,112,1.0,1.0,99,0.04,CLR,,0.05,WeatherDisplay:10.37,2013-01-11 07:18:00,
2013-01-11 02:23:00,56.6,56.3,30.32,East,98,2.3,2.3,99,0.04,RA,,0.06,WeatherDisplay:10.37,2013-01-11 07:23:00,
2013-01-11 02:28:00,56.7,56.4,30.32,ENE,64,1.1,0.0,99,0.04,RA,,0.06,WeatherDisplay:10.37,2013-01-11 07:28:00,
2013-01-11 02:33:00,56.7,56.4,30.32,NE,42,2.3,2.3,99,0.04,,,0.06,WeatherDisplay:10.37,2013-01-11 07:33:00,
2013-01-11 02:38:00,56.8,56.5,30.31,ESE,107,3.5,3.5,99,0.04,CLR,,0.06,WeatherDisplay:10.37,2013-01-11 07:38:00,
2013-01-11 02:43:00,56.9,56.6,30.32,ESE,106,1.1,0.0,99,0.04,RA,,0.07,WeatherDisplay:10.37,2013-01-11 07:43:00,
2013-01-11 02:48:00,57.0,56.7,30.32,ESE,107,1.1,0.0,99,0.03,RA,,0.07,WeatherDisplay:10.37,2013-01-11 07:48:00,
2013-01-11 02:53:00,57.1,56.8,30.32,East,98,2.3,2.3,99,0.04,RA,,0.08,WeatherDisplay:10.37,2013-01-11 07:53:00,
2013-01-11 02:58:00,57.1,56.8,30.31,ESE,117,2.3,2.3,99,0.04,RA,,0.08,WeatherDisplay:10.37,2013-01-11 07:58:00,
2013-01-11 03:03:00,57.0,56.7,30.32,ESE,115,2.3,0.0,99,0.04,CLR,,0.08,WeatherDisplay:10.37,2013-01-11 08:03:00,
2013-01-11 03:08:00,57.0,56.7,30.32,ESE,121,2.3,0.0,99,0.03,CLR,,0.08,WeatherDisplay:10.37,2013-01-11 08:08:00,
2013-01-11 03:13:00,57.1,56.8,30.32,NE,38,2.3,2.3,99,0.04,RA,,0.09,WeatherDisplay:10.37,2013-01-11 08:13:00,
2013-01-11 03:18:00,57.0,56.7,30.32,ESE,123,3.0,3.0,99,0.04,RA,,0.09,WeatherDisplay:10.37,2013-01-11 08:18:00,
2013-01-11 03:23:00,57.1,56.8,30.33,East,84,1.1,1.1,99,0.03,,,0.09,WeatherDisplay:10.37,2013-01-11 08:23:00,
2013-01-11 03:28:00,57.1,56.8,30.33,ESE,122,2.3,2.3,99,0.03,CLR,,0.09,WeatherDisplay:10.37,2013-01-11 08:28:00,
2013-01-11 03:33:00,57.1,56.8,30.32,SE,141,3.5,3.5,99,0.03,CLR,,0.09,WeatherDisplay:10.37,2013-01-11 08:33:00,
2013-01-11 03:38:00,57.1,56.8,30.32,ESE,111,2.3,2.3,99,0.04,RA,,0.10,WeatherDisplay:10.37,2013-01-11 08:38:00,
2013-01-11 03:43:00,57.1,56.8,30.32,ESE,111,0.0,0.0,99,0.03,RA,,0.10,WeatherDisplay:10.37,2013-01-11 08:43:00,
2013-01-11 03:48:00,57.1,56.8,30.32,ESE,109,1.1,0.0,99,0.03,CLR,,0.10,WeatherDisplay:10.37,2013-01-11 08:48:00,
2013-01-11 03:53:00,57.1,56.8,30.31,ESE,119,3.5,3.5,99,0.03,RA,,0.11,WeatherDisplay:10.37,2013-01-11 08:53:00,
2013-01-11 03:58:00,57.1,56.8,30.31,East,101,0.0,0.5,99,0.03,RA,,0.11,WeatherDisplay:10.37,2013-01-11 08:58:00,
2013-01-11 04:03:00,57.1,56.8,30.31,ESE,121,2.3,2.3,99,0.04,RA,,0.12,WeatherDisplay:10.37,2013-01-11 09:03:00,
2013-01-11 04:08:00,57.1,56.8,30.31,SE,130,0.0,0.0,99,0.04,RA,,0.12,WeatherDisplay:10.37,2013-01-11 09:08:00,
2013-01-11 04:13:00,57.1,56.8,30.30,ESE,121,0.0,0.0,99,0.03,,,0.12,WeatherDisplay:10.37,2013-01-11 09:13:00,
2013-01-11 04:18:00,57.1,56.8,30.30,ESE,121,1.1,0.0,99,0.03,CLR,,0.12,WeatherDisplay:10.37,2013-01-11 09:18:00,
2013-01-11 04:23:00,57.0,56.7,30.30,ENE,71,0.0,0.0,99,0.03,CLR,,0.12,WeatherDisplay:10.37,2013-01-11 09:23:00,
2013-01-11 04:28:00,57.0,56.7,30.29,ESE,102,0.0,0.0,99,0.03,CLR,,0.12,WeatherDisplay:10.37,2013-01-11 09:28:00,
2013-01-11 04:33:00,56.9,56.6,30.29,ESE,105,2.3,2.3,99,0.03,CLR,,0.12,WeatherDisplay:10.37,2013-01-11 09:33:00,
2013-01-11 04:38:00,56.9,56.6,30.29,ESE,105,0.0,0.0,99,0.03,RA,,0.13,WeatherDisplay:10.37,2013-01-11 09:38:00,
2013-01-11 04:43:00,56.9,56.6,30.28,ESE,105,1.1,0.0,99,0.03,RA,,0.13,WeatherDisplay:10.37,2013-01-11 09:43:00,
2013-01-11 04:48:00,57.0,56.7,30.28,West,273,0.0,0.0,99,0.03,CLR,,0.13,WeatherDisplay:10.37,2013-01-11 09:48:00,
2013-01-11 04:53:00,57.0,56.7,30.29,West,272,0.0,0.0,99,0.02,CLR,,0.13,WeatherDisplay:10.37,2013-01-11 09:53:00,
2013-01-11 04:58:00,56.9,56.6,30.29,West,272,0.0,0.0,99,0.03,RA,,0.14,WeatherDisplay:10.37,2013-01-11 09:58:00,
2013-01-11 05:03:00,57.0,56.7,30.29,West,273,0.0,0.0,99,0.02,RA,,0.14,WeatherDisplay:10.37,2013-01-11 10:03:00,
2013-01-11 05:11:00,56.9,56.6,30.29,West,273,0.0,0.0,99,0.04,RA,,0.17,WeatherDisplay:10.37,2013-01-11 10:11:00,
2013-01-11 05:17:00,56.9,56.6,30.29,West,273,0.0,0.0,99,0.07,RA,,0.20,WeatherDisplay:10.37,2013-01-11 10:17:00,
2013-01-11 05:22:00,56.9,56.6,30.29,West,273,0.0,0.0,99,0.10,RA,,0.23,WeatherDisplay:10.37,2013-01-11 10:22:00,
2013-01-11 05:27:00,56.9,56.6,30.29,West,272,0.0,0.0,99,0.12,RA,,0.24,WeatherDisplay:10.37,2013-01-11 10:27:00,
2013-01-11 05:32:00,56.9,56.6,30.29,West,272,1.1,0.0,99,0.12,RA,,0.25,WeatherDisplay:10.37,2013-01-11 10:32:00,
2013-01-11 05:37:00,56.8,56.5,30.29,West,272,0.0,0.0,99,0.13,RA,,0.26,WeatherDisplay:10.37,2013-01-11 10:37:00,
2013-01-11 05:42:00,56.9,56.6,30.29,West,273,0.0,0.0,99,0.14,RA,,0.27,WeatherDisplay:10.37,2013-01-11 10:42:00,
2013-01-11 05:47:00,56.9,56.6,30.29,West,272,0.0,0.0,99,0.15,RA,,0.28,WeatherDisplay:10.37,2013-01-11 10:47:00,
2013-01-11 05:52:00,56.9,56.6,30.29,West,273,0.0,0.0,99,0.16,RA,,0.29,WeatherDisplay:10.37,2013-01-11 10:52:00,
2013-01-11 05:57:00,56.9,56.6,30.29,West,273,0.0,0.0,99,0.16,RA,,0.29,WeatherDisplay:10.37,2013-01-11 10:57:00,
2013-01-11 06:02:00,56.9,56.6,30.29,West,272,0.0,0.0,99,0.15,,,0.29,WeatherDisplay:10.37,2013-01-11 11:02:00,
2013-01-11 06:07:00,56.8,56.5,30.29,West,273,0.0,0.0,99,0.15,CLR,,0.29,WeatherDisplay:10.37,2013-01-11 11:07:00,
2013-01-11 06:12:00,56.8,56.5,30.29,West,272,1.1,0.0,99,0.13,CLR,,0.29,WeatherDisplay:10.37,2013-01-11 11:12:00,
2013-01-11 06:17:00,56.8,56.5,30.29,West,272,0.0,0.0,99,0.10,CLR,,0.29,WeatherDisplay:10.37,2013-01-11 11:17:00,
2013-01-11 06:22:00,56.8,56.5,30.29,West,273,0.0,0.0,99,0.07,CLR,,0.29,WeatherDisplay:10.37,2013-01-11 11:22:00,
2013-01-11 06:27:00,56.8,56.5,30.29,West,272,0.0,0.0,99,0.05,CLR,,0.29,WeatherDisplay:10.37,2013-01-11 11:27:00,
2013-01-11 06:32:00,56.8,56.5,30.30,West,273,0.0,0.0,99,0.05,CLR,,0.29,WeatherDisplay:10.37,2013-01-11 11:32:00,
2013-01-11 06:37:00,56.8,56.5,30.30,West,272,0.0,0.0,99,0.03,CLR,,0.29,WeatherDisplay:10.37,2013-01-11 11:37:00,
2013-01-11 06:42:00,56.7,56.4,30.30,West,273,0.0,0.0,99,0.02,CLR,,0.29,WeatherDisplay:10.37,2013-01-11 11:42:00,
2013-01-11 06:47:00,56.7,56.4,30.30,West,273,0.0,0.0,99,0.01,CLR,,0.29,WeatherDisplay:10.37,2013-01-11 11:47:00,
2013-01-11 06:52:00,56.7,56.4,30.30,West,273,0.0,0.0,99,0.00,CLR,,0.29,WeatherDisplay:10.37,2013-01-11 11:52:00,
2013-01-11 06:57:00,56.7,56.4,30.30,West,273,0.0,0.0,99,0.00,CLR,,0.29,WeatherDisplay:10.37,2013-01-11 11:57:00,
2013-01-11 07:02:00,56.7,56.4,30.30,West,273,0.0,0.0,99,0.00,CLR,,0.29,WeatherDisplay:10.37,2013-01-11 12:02:00,
2013-01-11 07:07:00,56.8,56.5,30.30,West,273,0.0,0.0,99,0.00,CLR,,0.29,WeatherDisplay:10.37,2013-01-11 12:07:00,
2013-01-11 07:12:00,56.8,56.5,30.30,West,272,0.0,0.0,99,0.00,CLR,,0.29,WeatherDisplay:10.37,2013-01-11 12:12:00,
2013-01-11 07:17:00,56.7,56.4,30.30,West,272,0.0,0.0,99,0.00,CLR,,0.29,WeatherDisplay:10.37,2013-01-11 12:17:00,
2013-01-11 07:22:00,56.7,56.4,30.30,West,273,0.0,0.0,99,0.00,CLR,,0.29,WeatherDisplay:10.37,2013-01-11 12:22:00,
2013-01-11 07:27:00,56.7,56.4,30.30,West,273,0.0,0.0,99,0.00,CLR,,0.29,WeatherDisplay:10.37,2013-01-11 12:27:00,
2013-01-11 07:32:00,56.7,56.4,30.30,West,272,0.0,0.0,99,0.00,CLR,,0.29,WeatherDisplay:10.37,2013-01-11 12:32:00,
2013-01-11 07:37:00,56.7,56.4,30.30,West,272,0.0,0.0,99,0.00,CLR,,0.29,WeatherDisplay:10.37,2013-01-11 12:37:00,
2013-01-11 07:42:00,56.7,56.4,30.31,West,273,0.0,0.0,99,0.00,CLR,,0.29,WeatherDisplay:10.37,2013-01-11 12:42:00,
2013-01-11 07:47:00,56.7,56.4,30.31,West,272,1.1,0.0,99,0.01,RA,,0.30,WeatherDisplay:10.37,2013-01-11 12:47:00,
2013-01-11 07:52:00,56.7,56.4,30.31,West,272,0.0,0.0,99,0.01,RA,,0.30,WeatherDisplay:10.37,2013-01-11 12:52:00,
2013-01-11 07:57:00,56.7,56.4,30.31,East,101,1.1,1.1,99,0.01,CLR,,0.30,WeatherDisplay:10.37,2013-01-11 12:57:00,
2013-01-11 08:02:00,56.8,56.5,30.31,East,101,0.0,0.0,99,0.02,RA,,0.32,WeatherDisplay:10.37,2013-01-11 13:02:00,
2013-01-11 08:07:00,56.9,56.6,30.31,ESE,106,3.5,3.5,99,0.03,RA,,0.32,WeatherDisplay:10.37,2013-01-11 13:07:00,
2013-01-11 08:12:00,57.3,57.0,30.31,ESE,109,1.1,0.0,99,0.03,RA,,0.32,WeatherDisplay:10.37,2013-01-11 13:12:00,
2013-01-11 08:17:00,57.6,57.3,30.31,SSW,200,2.3,2.3,99,0.03,CLR,,0.32,WeatherDisplay:10.37,2013-01-11 13:17:00,
2013-01-11 08:22:00,57.6,57.3,30.31,SSW,209,1.1,0.0,99,0.03,CLR,,0.32,WeatherDisplay:10.37,2013-01-11 13:22:00,
2013-01-11 08:27:00,57.7,57.4,30.31,SSW,209,0.0,0.0,99,0.03,CLR,,0.33,WeatherDisplay:10.37,2013-01-11 13:27:00,
2013-01-11 08:32:00,57.8,57.5,30.31,SSW,209,0.0,0.0,99,0.04,RA,,0.33,WeatherDisplay:10.37,2013-01-11 13:32:00,
2013-01-11 08:37:00,57.9,57.6,30.31,SSW,209,0.0,0.0,99,0.04,RA,,0.33,WeatherDisplay:10.37,2013-01-11 13:37:00,
2013-01-11 08:42:00,58.0,57.7,30.31,SSW,209,0.0,0.0,99,0.04,CLR,,0.33,WeatherDisplay:10.37,2013-01-11 13:42:00,
2013-01-11 08:47:00,58.1,57.8,30.32,ESE,104,3.0,3.0,99,0.03,CLR,,0.33,WeatherDisplay:10.37,2013-01-11 13:47:00,
2013-01-11 08:52:00,58.3,58.0,30.32,ESE,103,1.1,0.0,99,0.03,CLR,,0.33,WeatherDisplay:10.37,2013-01-11 13:52:00,
2013-01-11 08:57:00,58.4,58.1,30.32,ESE,107,0.0,0.0,99,0.03,CLR,,0.33,WeatherDisplay:10.37,2013-01-11 13:57:00,
2013-01-11 09:02:00,58.6,58.3,30.31,ESE,106,0.0,0.0,99,0.02,CLR,,0.33,WeatherDisplay:10.37,2013-01-11 14:02:00,
2013-01-11 09:07:00,58.8,58.8,30.31,SE,129,0.0,0.3,100,0.01,CLR,,0.33,WeatherDisplay:10.37,2013-01-11 14:07:00,
2013-01-11 09:12:00,59.0,59.0,30.32,SE,129,0.0,0.0,100,0.01,CLR,,0.33,WeatherDisplay:10.37,2013-01-11 14:12:00,
2013-01-11 09:17:00,59.1,59.1,30.32,SSE,157,2.3,2.3,100,0.01,CLR,,0.33,WeatherDisplay:10.37,2013-01-11 14:17:00,
2013-01-11 09:22:00,59.1,58.8,30.32,SSE,157,1.0,1.0,99,0.01,CLR,,0.33,WeatherDisplay:10.37,2013-01-11 14:22:00,
2013-01-11 09:27:00,59.1,58.8,30.32,SW,230,2.3,2.3,99,0.01,CLR,,0.33,WeatherDisplay:10.37,2013-01-11 14:27:00,
2013-01-11 09:32:00,59.0,58.7,30.32,SW,230,1.1,0.0,99,0.00,CLR,,0.33,WeatherDisplay:10.37,2013-01-11 14:32:00,
2013-01-11 09:37:00,59.2,58.9,30.32,South,178,0.0,0.0,99,0.00,CLR,,0.33,WeatherDisplay:10.37,2013-01-11 14:37:00,
2013-01-11 09:42:00,59.4,59.1,30.32,SSE,167,3.5,3.5,99,0.01,RA,,0.34,WeatherDisplay:10.37,2013-01-11 14:42:00,
2013-01-11 09:47:00,59.6,59.6,30.31,SE,144,1.1,0.0,100,0.01,RA,,0.34,WeatherDisplay:10.37,2013-01-11 14:47:00,
2013-01-11 09:52:00,59.7,59.4,30.32,SE,145,1.1,1.1,99,0.02,RA,,0.35,WeatherDisplay:10.37,2013-01-11 14:52:00,
2013-01-11 09:57:00,59.9,59.6,30.32,SSW,198,3.5,3.5,99,0.03,RA,,0.36,WeatherDisplay:10.37,2013-01-11 14:57:00,
2013-01-11 10:02:00,60.0,60.0,30.32,SSE,148,2.0,2.0,100,0.03,RA,,0.36,WeatherDisplay:10.37,2013-01-11 15:02:00,
2013-01-11 10:07:00,60.1,60.1,30.32,South,187,0.0,0.0,100,0.04,RA,,0.37,WeatherDisplay:10.37,2013-01-11 15:07:00,
2013-01-11 10:12:00,60.2,60.2,30.31,SE,146,3.5,3.5,100,0.04,RA,,0.37,WeatherDisplay:10.37,2013-01-11 15:12:00,
2013-01-11 10:17:00,60.3,60.3,30.32,East,84,1.1,1.1,100,0.05,RA,,0.38,WeatherDisplay:10.37,2013-01-11 15:17:00,
2013-01-11 10:22:00,60.3,60.3,30.32,ESE,106,3.5,3.5,100,0.05,RA,,0.38,WeatherDisplay:10.37,2013-01-11 15:22:00,
2013-01-11 10:27:00,60.3,60.3,30.32,East,91,3.5,3.5,100,0.05,CLR,,0.38,WeatherDisplay:10.37,2013-01-11 15:27:00,
2013-01-11 10:32:00,60.4,60.1,30.32,ESE,120,1.1,1.6,99,0.06,RA,,0.39,WeatherDisplay:10.37,2013-01-11 15:32:00,
2013-01-11 10:37:00,60.4,60.1,30.32,SSE,161,3.5,3.5,99,0.06,RA,,0.40,WeatherDisplay:10.37,2013-01-11 15:37:00,
2013-01-11 10:42:00,60.5,60.2,30.32,ESE,113,3.5,3.5,99,0.07,RA,,0.41,WeatherDisplay:10.37,2013-01-11 15:42:00,
2013-01-11 10:47:00,60.5,60.2,30.32,SSE,153,1.1,1.1,99,0.07,RA,,0.42,WeatherDisplay:10.37,2013-01-11 15:47:00,
2013-01-11 10:52:00,60.5,60.2,30.32,ENE,77,0.0,0.0,99,0.07,RA,,0.42,WeatherDisplay:10.37,2013-01-11 15:52:00,
2013-01-11 10:57:00,60.5,60.2,30.32,SE,134,1.1,0.0,99,0.06,RA,,0.42,WeatherDisplay:10.37,2013-01-11 15:57:00,
2013-01-11 11:02:00,60.5,60.2,30.32,South,182,4.6,4.6,99,0.06,CLR,,0.42,WeatherDisplay:10.37,2013-01-11 16:02:00,
2013-01-11 11:07:00,60.6,60.3,30.31,ESE,114,1.1,0.0,99,0.05,CLR,,0.42,WeatherDisplay:10.37,2013-01-11 16:07:00,
2013-01-11 11:12:00,60.6,60.3,30.31,SSE,148,3.5,3.5,99,0.05,CLR,,0.42,WeatherDisplay:10.37,2013-01-11 16:12:00,
2013-01-11 11:17:00,60.6,60.6,30.31,ESE,119,0.0,0.0,100,0.04,CLR,,0.42,WeatherDisplay:10.37,2013-01-11 16:17:00,
2013-01-11 11:22:00,60.6,60.6,30.31,East,88,1.1,1.1,100,0.04,CLR,,0.42,WeatherDisplay:10.37,2013-01-11 16:22:00,
2013-01-11 11:27:00,60.6,60.6,30.30,South,169,2.3,2.3,100,0.04,CLR,,0.42,WeatherDisplay:10.37,2013-01-11 16:27:00,
2013-01-11 11:32:00,60.6,60.6,30.30,SSE,167,3.0,3.0,100,0.03,CLR,,0.42,WeatherDisplay:10.37,2013-01-11 16:32:00,
2013-01-11 11:37:00,60.7,60.4,30.30,SSE,153,0.0,0.1,99,0.03,CLR,,0.42,WeatherDisplay:10.37,2013-01-11 16:37:00,
2013-01-11 11:42:00,60.7,60.4,30.30,SE,126,2.3,0.0,99,0.01,CLR,,0.42,WeatherDisplay:10.37,2013-01-11 16:42:00,
2013-01-11 11:47:00,60.7,60.4,30.30,ESE,121,1.1,1.1,99,0.01,CLR,,0.42,WeatherDisplay:10.37,2013-01-11 16:47:00,
2013-01-11 11:52:00,60.7,60.4,30.30,South,186,3.5,3.5,99,0.01,RA,,0.43,WeatherDisplay:10.37,2013-01-11 16:52:00,
2013-01-11 11:57:00,60.7,60.4,30.29,SSE,148,0.0,0.0,99,0.01,RA,,0.43,WeatherDisplay:10.37,2013-01-11 16:57:00,
2013-01-11 12:02:00,60.7,60.4,30.29,SSE,150,2.3,0.0,99,0.01,CLR,,0.43,WeatherDisplay:10.37,2013-01-11 17:02:00,
2013-01-11 12:07:00,60.7,60.4,30.29,SSE,149,0.0,0.0,99,0.01,CLR,,0.43,WeatherDisplay:10.37,2013-01-11 17:07:00,
2013-01-11 12:12:00,60.7,60.4,30.29,South,178,3.5,3.5,99,0.01,CLR,,0.43,WeatherDisplay:10.37,2013-01-11 17:12:00,
2013-01-11 12:17:00,60.7,60.4,30.28,South,180,3.0,3.0,99,0.01,CLR,,0.43,WeatherDisplay:10.37,2013-01-11 17:17:00,
2013-01-11 12:22:00,60.7,60.4,30.28,SE,130,0.0,0.0,99,0.01,CLR,,0.43,WeatherDisplay:10.37,2013-01-11 17:22:00,
2013-01-11 12:27:00,60.8,60.5,30.28,SE,130,0.0,0.0,99,0.01,CLR,,0.43,WeatherDisplay:10.37,2013-01-11 17:27:00,
2013-01-11 12:32:00,60.8,60.5,30.27,SE,145,0.0,0.0,99,0.01,CLR,,0.43,WeatherDisplay:10.37,2013-01-11 17:32:00,
2013-01-11 12:37:00,60.8,60.5,30.28,SE,145,0.0,0.0,99,0.01,CLR,,0.43,WeatherDisplay:10.37,2013-01-11 17:37:00,
2013-01-11 12:42:00,60.8,60.5,30.27,SE,145,0.0,0.0,99,0.01,CLR,,0.43,WeatherDisplay:10.37,2013-01-11 17:42:00,
2013-01-11 12:47:00,60.9,60.6,30.27,SSE,161,0.0,0.3,99,0.01,CLR,,0.43,WeatherDisplay:10.37,2013-01-11 17:47:00,
2013-01-11 12:52:00,60.9,60.6,30.27,SSE,161,0.0,0.0,99,0.00,CLR,,0.43,WeatherDisplay:10.37,2013-01-11 17:52:00,
2013-01-11 12:57:00,60.9,60.6,30.26,SSE,161,0.0,0.0,99,0.01,RA,,0.44,WeatherDisplay:10.37,2013-01-11 17:57:00,
2013-01-11 13:02:00,61.0,60.7,30.26,SSE,163,2.3,0.0,99,0.01,RA,,0.44,WeatherDisplay:10.37,2013-01-11 18:02:00,
2013-01-11 13:07:00,61.0,60.7,30.26,SSE,162,1.1,0.0,99,0.02,RA,,0.45,WeatherDisplay:10.37,2013-01-11 18:07:00,
2013-01-11 13:12:00,61.0,60.7,30.26,SSE,161,0.0,0.0,99,0.03,RA,,0.46,WeatherDisplay:10.37,2013-01-11 18:12:00,
2013-01-11 13:17:00,61.0,60.7,30.26,SSE,150,1.0,1.0,99,0.03,RA,,0.46,WeatherDisplay:10.37,2013-01-11 18:17:00,
2013-01-11 13:22:00,61.1,60.8,30.26,SSE,150,0.0,0.0,99,0.04,RA,,0.47,WeatherDisplay:10.37,2013-01-11 18:22:00,
2013-01-11 13:27:00,61.1,60.8,30.25,SSE,150,0.0,0.0,99,0.04,RA,,0.47,WeatherDisplay:10.37,2013-01-11 18:27:00,
2013-01-11 13:32:00,61.1,60.8,30.26,SSE,167,0.0,0.1,99,0.04,CLR,,0.47,WeatherDisplay:10.37,2013-01-11 18:32:00,
2013-01-11 13:37:00,61.1,60.8,30.26,South,175,2.3,2.3,99,0.05,RA,,0.48,WeatherDisplay:10.37,2013-01-11 18:37:00,
2013-01-11 13:42:00,61.1,60.8,30.26,SSE,167,1.0,1.0,99,0.05,RA,,0.48,WeatherDisplay:10.37,2013-01-11 18:42:00,
2013-01-11 13:47:00,61.1,60.8,30.26,SW,219,3.5,3.5,99,0.05,CLR,,0.48,WeatherDisplay:10.37,2013-01-11 18:47:00,
2013-01-11 13:52:00,61.1,60.8,30.25,SSE,160,1.1,1.1,99,0.05,CLR,,0.49,WeatherDisplay:10.37,2013-01-11 18:52:00,
2013-01-11 13:57:00,61.1,60.8,30.25,SSE,160,0.0,0.0,99,0.05,RA,,0.49,WeatherDisplay:10.37,2013-01-11 18:57:00,
2013-01-11 14:02:00,61.1,60.8,30.25,SE,141,1.1,0.0,99,0.05,RA,,0.49,WeatherDisplay:10.37,2013-01-11 19:02:00,
2013-01-11 14:07:00,61.1,60.8,30.25,SE,141,0.0,0.0,99,0.04,CLR,,0.49,WeatherDisplay:10.37,2013-01-11 19:07:00,
2013-01-11 14:12:00,61.1,60.8,30.25,SE,142,0.0,0.0,99,0.03,CLR,,0.49,WeatherDisplay:10.37,2013-01-11 19:12:00,
2013-01-11 14:17:00,61.1,60.8,30.25,SE,142,0.0,0.0,99,0.03,CLR,,0.49,WeatherDisplay:10.37,2013-01-11 19:17:00,
2013-01-11 14:22:00,61.1,60.8,30.25,SSE,156,1.1,1.1,99,0.02,CLR,,0.49,WeatherDisplay:10.37,2013-01-11 19:22:00,
2013-01-11 14:27:00,61.2,60.9,30.24,SSE,156,0.0,0.0,99,0.02,CLR,,0.49,WeatherDisplay:10.37,2013-01-11 19:27:00,
2013-01-11 14:32:00,61.2,60.9,30.23,South,189,0.0,0.0,99,0.02,CLR,,0.49,WeatherDisplay:10.37,2013-01-11 19:32:00,
2013-01-11 14:37:00,61.2,60.9,30.24,South,188,1.1,1.1,99,0.01,CLR,,0.49,WeatherDisplay:10.37,2013-01-11 19:37:00,
2013-01-11 14:42:00,61.2,60.9,30.24,South,187,2.3,0.0,99,0.01,CLR,,0.49,WeatherDisplay:10.37,2013-01-11 19:42:00,
2013-01-11 14:47:00,61.2,60.9,30.24,SSE,154,1.1,1.1,99,0.01,CLR,,0.49,WeatherDisplay:10.37,2013-01-11 19:47:00,
2013-01-11 14:52:00,61.3,61.0,30.24,SE,132,1.1,1.1,99,0.01,CLR,,0.49,WeatherDisplay:10.37,2013-01-11 19:52:00,
2013-01-11 14:57:00,61.3,61.0,30.24,SSE,153,2.3,2.3,99,0.00,CLR,,0.49,WeatherDisplay:10.37,2013-01-11 19:57:00,
2013-01-11 15:02:00,61.3,61.0,30.24,SSE,153,0.0,0.0,99,0.00,CLR,,0.49,WeatherDisplay:10.37,2013-01-11 20:02:00,
2013-01-11 15:07:00,61.3,61.0,30.24,SSE,154,0.0,0.4,99,0.00,CLR,,0.49,WeatherDisplay:10.37,2013-01-11 20:07:00,
2013-01-11 15:12:00,61.3,61.0,30.24,SE,142,0.0,0.0,99,0.00,CLR,,0.49,WeatherDisplay:10.37,2013-01-11 20:12:00,
2013-01-11 15:17:00,61.3,61.0,30.24,East,98,0.0,0.0,99,0.00,CLR,,0.49,WeatherDisplay:10.37,2013-01-11 20:17:00,
2013-01-11 15:22:00,61.2,60.9,30.24,East,98,0.0,0.0,99,0.00,CLR,,0.49,WeatherDisplay:10.37,2013-01-11 20:22:00,
2013-01-11 15:27:00,61.2,60.9,30.24,East,98,0.0,0.0,99,0.00,CLR,,0.49,WeatherDisplay:10.37,2013-01-11 20:27:00,
2013-01-11 15:32:00,61.2,60.9,30.24,East,98,0.0,0.0,99,0.01,RA,,0.50,WeatherDisplay:10.37,2013-01-11 20:32:00,
2013-01-11 15:37:00,61.1,60.8,30.24,East,98,0.0,0.0,99,0.01,RA,,0.50,WeatherDisplay:10.37,2013-01-11 20:37:00,
2013-01-11 15:42:00,61.1,60.8,30.24,East,98,0.0,0.0,99,0.02,RA,,0.51,WeatherDisplay:10.37,2013-01-11 20:42:00,
2013-01-11 15:47:00,61.1,60.8,30.24,East,98,0.0,0.0,99,0.02,RA,,0.51,WeatherDisplay:10.37,2013-01-11 20:47:00,
2013-01-11 15:52:00,61.2,60.9,30.25,East,98,0.0,0.0,99,0.03,RA,,0.52,WeatherDisplay:10.37,2013-01-11 20:52:00,
2013-01-11 15:57:00,61.2,60.9,30.25,East,98,0.0,0.0,99,0.03,RA,,0.53,WeatherDisplay:10.37,2013-01-11 20:57:00,
2013-01-11 16:02:00,61.2,60.9,30.24,South,189,0.0,0.0,99,0.04,RA,,0.53,WeatherDisplay:10.37,2013-01-11 21:02:00,
2013-01-11 16:07:00,61.2,60.9,30.24,South,189,0.0,0.0,99,0.05,RA,,0.54,WeatherDisplay:10.37,2013-01-11 21:07:00,
2013-01-11 16:12:00,61.2,60.9,30.24,South,189,0.0,0.0,99,0.05,RA,,0.54,WeatherDisplay:10.37,2013-01-11 21:12:00,
2013-01-11 16:17:00,61.2,60.9,30.24,SE,142,0.0,0.0,99,0.06,RA,,0.55,WeatherDisplay:10.37,2013-01-11 21:17:00,
2013-01-11 16:22:00,61.2,60.9,30.24,SE,142,0.0,0.0,99,0.06,RA,,0.55,WeatherDisplay:10.37,2013-01-11 21:22:00,
2013-01-11 16:27:00,61.2,60.9,30.25,SE,142,1.1,0.0,99,0.07,RA,,0.56,WeatherDisplay:10.37,2013-01-11 21:27:00,
2013-01-11 16:32:00,61.2,60.9,30.24,SE,142,0.0,0.0,99,0.07,RA,,0.57,WeatherDisplay:10.37,2013-01-11 21:32:00,
2013-01-11 16:37:00,61.2,60.9,30.24,SE,142,0.0,0.0,99,0.08,RA,,0.59,WeatherDisplay:10.37,2013-01-11 21:37:00,
2013-01-11 16:42:00,61.1,60.8,30.24,SE,143,0.0,0.0,99,0.09,RA,,0.61,WeatherDisplay:10.37,2013-01-11 21:42:00,
2013-01-11 16:47:00,61.2,60.9,30.24,SE,143,0.0,0.0,99,0.10,RA,,0.61,WeatherDisplay:10.37,2013-01-11 21:47:00,
2013-01-11 16:52:00,61.2,60.9,30.25,SE,142,0.0,0.0,99,0.10,RA,,0.62,WeatherDisplay:10.37,2013-01-11 21:52:00,
2013-01-11 16:57:00,61.2,60.9,30.24,SE,142,0.0,0.0,99,0.11,RA,,0.63,WeatherDisplay:10.37,2013-01-11 21:57:00,
2013-01-11 17:02:00,61.2,60.9,30.24,SE,143,0.0,0.0,99,0.10,RA,,0.63,WeatherDisplay:10.37,2013-01-11 22:02:00,
2013-01-11 17:07:00,61.2,60.9,30.24,SE,143,0.0,0.0,99,0.10,RA,,0.64,WeatherDisplay:10.37,2013-01-11 22:07:00,
2013-01-11 17:12:00,61.2,60.9,30.24,SE,142,0.0,0.0,99,0.10,RA,,0.64,WeatherDisplay:10.37,2013-01-11 22:12:00,
2013-01-11 17:17:00,61.2,60.9,30.24,SE,143,0.0,0.0,99,0.09,,,0.64,WeatherDisplay:10.37,2013-01-11 22:17:00,
2013-01-11 17:22:00,61.2,60.9,30.24,SE,143,0.0,0.0,99,0.09,CLR,,0.64,WeatherDisplay:10.37,2013-01-11 22:22:00,
2013-01-11 17:27:00,61.2,60.9,30.24,SE,142,0.0,0.0,99,0.08,CLR,,0.64,WeatherDisplay:10.37,2013-01-11 22:27:00,
2013-01-11 17:32:00,61.2,60.9,30.25,SE,143,0.0,0.0,99,0.07,CLR,,0.64,WeatherDisplay:10.37,2013-01-11 22:32:00,
2013-01-11 17:37:00,61.1,60.8,30.25,SE,142,0.0,0.0,99,0.06,CLR,,0.64,WeatherDisplay:10.37,2013-01-11 22:37:00,
2013-01-11 17:42:00,61.1,60.8,30.25,SE,143,0.0,0.0,99,0.05,RA,,0.65,WeatherDisplay:10.37,2013-01-11 22:42:00,
2013-01-11 17:47:00,61.0,60.7,30.25,SE,142,0.0,0.0,99,0.05,RA,,0.66,WeatherDisplay:10.37,2013-01-11 22:47:00,
2013-01-11 17:52:00,61.0,60.7,30.24,SE,143,0.0,0.0,99,0.05,RA,,0.67,WeatherDisplay:10.37,2013-01-11 22:52:00,
2013-01-11 17:57:00,60.9,60.6,30.25,SE,143,0.0,0.0,99,0.05,RA,,0.68,WeatherDisplay:10.37,2013-01-11 22:57:00,
2013-01-11 18:02:00,60.9,60.6,30.25,SE,143,0.0,0.0,99,0.07,RA,,0.70,WeatherDisplay:10.37,2013-01-11 23:02:00,
2013-01-11 18:07:00,60.9,60.6,30.25,SE,142,0.0,0.0,99,0.07,RA,,0.71,WeatherDisplay:10.37,2013-01-11 23:07:00,
2013-01-11 18:12:00,60.9,60.6,30.25,SE,143,0.0,0.0,99,0.07,RA,,0.72,WeatherDisplay:10.37,2013-01-11 23:12:00,
2013-01-11 18:17:00,60.9,60.6,30.25,SE,143,0.0,0.0,99,0.08,RA,,0.72,WeatherDisplay:10.37,2013-01-11 23:17:00,
2013-01-11 18:22:00,60.8,60.5,30.25,SE,143,0.0,0.0,99,0.09,RA,,0.73,WeatherDisplay:10.37,2013-01-11 23:22:00,
2013-01-11 18:27:00,60.8,60.5,30.25,SE,142,0.0,0.0,99,0.10,RA,,0.74,WeatherDisplay:10.37,2013-01-11 23:27:00,
2013-01-11 18:35:00,60.7,60.4,30.25,SE,142,0.0,0.0,99,0.10,,,0.74,WeatherDisplay:10.37,2013-01-11 23:35:00,
2013-01-11 18:40:00,60.7,60.4,30.25,SE,142,0.0,0.0,99,0.11,RA,,0.75,WeatherDisplay:10.37,2013-01-11 23:40:00,
2013-01-11 18:45:00,60.7,60.4,30.25,SE,143,0.0,0.0,99,0.10,RA,,0.77,WeatherDisplay:10.37,2013-01-11 23:45:00,
2013-01-11 18:50:00,60.6,60.3,30.25,SE,143,0.0,0.0,99,0.11,RA,,0.77,WeatherDisplay:10.37,2013-01-11 23:50:00,
2013-01-11 18:55:00,60.6,60.3,30.25,SE,144,0.0,0.0,99,0.11,RA,,0.78,WeatherDisplay:10.37,2013-01-11 23:55:00,
2013-01-11 19:00:00,60.6,60.3,30.25,SE,144,0.0,0.0,99,0.12,RA,,0.80,WeatherDisplay:10.37,2013-01-12 00:00:00,
2013-01-11 19:05:00,60.5,60.2,30.25,SE,144,0.0,0.0,99,0.10,RA,,0.80,WeatherDisplay:10.37,2013-01-12 00:05:00,
2013-01-11 19:10:00,60.5,60.2,30.26,SE,144,0.0,0.0,99,0.09,,,0.80,WeatherDisplay:10.37,2013-01-12 00:10:00,
2013-01-11 19:15:00,60.5,60.2,30.26,SE,144,0.0,0.0,99,0.09,RA,,0.81,WeatherDisplay:10.37,2013-01-12 00:15:00,
2013-01-11 19:20:00,60.5,60.2,30.26,SE,144,0.0,0.0,99,0.08,RA,,0.81,WeatherDisplay:10.37,2013-01-12 00:20:00,
2013-01-11 19:25:00,60.6,60.3,30.26,SE,144,0.0,0.0,99,0.07,CLR,,0.81,WeatherDisplay:10.37,2013-01-12 00:25:00,
2013-01-11 19:30:00,60.5,60.2,30.26,SE,144,0.0,0.0,99,0.07,CLR,,0.82,WeatherDisplay:10.37,2013-01-12 00:30:00,
2013-01-11 19:35:00,60.6,60.3,30.26,SE,144,0.0,0.0,99,0.08,RA,,0.82,WeatherDisplay:10.37,2013-01-12 00:35:00,
2013-01-11 19:40:00,60.6,60.3,30.26,SE,144,0.0,0.0,99,0.07,RA,,0.82,WeatherDisplay:10.37,2013-01-12 00:40:00,
2013-01-11 19:45:00,60.5,60.2,30.26,SE,144,0.0,0.0,99,0.06,CLR,,0.82,WeatherDisplay:10.37,2013-01-12 00:45:00,
2013-01-11 19:50:00,60.6,60.3,30.26,SE,144,1.1,0.0,99,0.05,CLR,,0.82,WeatherDisplay:10.37,2013-01-12 00:50:00,
2013-01-11 19:55:00,60.7,60.4,30.26,SE,144,0.0,0.0,99,0.04,CLR,,0.82,WeatherDisplay:10.37,2013-01-12 00:55:00,
2013-01-11 20:00:00,60.7,60.4,30.26,SE,144,1.0,1.0,99,0.02,CLR,,0.82,WeatherDisplay:10.37,2013-01-12 01:00:00,
2013-01-11 20:05:00,60.7,60.4,30.26,SE,144,0.0,0.0,99,0.02,CLR,,0.82,WeatherDisplay:10.37,2013-01-12 01:05:00,
2013-01-11 20:10:00,60.7,60.4,30.26,SE,144,0.0,0.0,99,0.02,CLR,,0.82,WeatherDisplay:10.37,2013-01-12 01:10:00,
2013-01-11 20:15:00,60.6,60.3,30.26,SE,144,0.0,0.0,99,0.01,CLR,,0.82,WeatherDisplay:10.37,2013-01-12 01:15:00,
2013-01-11 20:20:00,60.7,60.4,30.26,SE,144,1.1,0.0,99,0.01,CLR,,0.82,WeatherDisplay:10.37,2013-01-12 01:20:00,
2013-01-11 20:25:00,60.6,60.3,30.26,SE,144,0.0,0.0,99,0.01,CLR,,0.82,WeatherDisplay:10.37,2013-01-12 01:25:00,
2013-01-11 20:30:00,60.6,60.3,30.26,SE,144,0.0,0.0,99,0.01,CLR,,0.82,WeatherDisplay:10.37,2013-01-12 01:30:00,
2013-01-11 20:35:00,60.6,60.3,30.26,SE,144,0.0,0.0,99,0.00,CLR,,0.82,WeatherDisplay:10.37,2013-01-12 01:35:00,
2013-01-11 20:40:00,60.7,60.4,30.25,SE,144,0.0,0.0,99,0.00,CLR,,0.82,WeatherDisplay:10.37,2013-01-12 01:40:00,
2013-01-11 20:45:00,60.8,60.5,30.25,SE,144,0.0,0.0,99,0.00,CLR,,0.82,WeatherDisplay:10.37,2013-01-12 01:45:00,
2013-01-11 20:50:00,60.7,60.4,30.25,SE,144,0.0,0.0,99,0.00,CLR,,0.82,WeatherDisplay:10.37,2013-01-12 01:50:00,
2013-01-11 20:55:00,60.6,60.3,30.26,SE,144,0.0,0.0,99,0.00,CLR,,0.82,WeatherDisplay:10.37,2013-01-12 01:55:00,
2013-01-11 21:00:00,60.5,60.2,30.25,SE,144,0.0,0.0,99,0.00,CLR,,0.82,WeatherDisplay:10.37,2013-01-12 02:00:00,
2013-01-11 21:05:00,60.5,60.2,30.26,SE,144,0.0,0.0,99,0.00,CLR,,0.82,WeatherDisplay:10.37,2013-01-12 02:05:00,
2013-01-11 21:10:00,60.5,60.2,30.26,SE,144,0.0,0.0,99,0.00,CLR,,0.83,WeatherDisplay:10.37,2013-01-12 02:10:00,
2013-01-11 21:15:00,60.5,60.2,30.26,SE,144,1.1,0.0,99,0.01,RA,,0.83,WeatherDisplay:10.37,2013-01-12 02:15:00,
2013-01-11 21:20:00,60.4,60.1,30.26,SE,144,0.0,0.0,99,0.02,RA,,0.84,WeatherDisplay:10.37,2013-01-12 02:20:00,
2013-01-11 21:25:00,60.4,60.1,30.26,SE,144,0.0,0.0,99,0.03,RA,,0.85,WeatherDisplay:10.37,2013-01-12 02:25:00,
2013-01-11 21:30:00,60.4,60.1,30.26,SE,144,0.0,0.0,99,0.03,RA,,0.86,WeatherDisplay:10.37,2013-01-12 02:30:00,
2013-01-11 21:35:00,60.4,60.1,30.26,SE,144,0.0,0.0,99,0.04,RA,,0.86,WeatherDisplay:10.37,2013-01-12 02:35:00,
2013-01-11 21:40:00,60.5,60.2,30.26,SE,144,0.0,0.0,99,0.05,RA,,0.87,WeatherDisplay:10.37,2013-01-12 02:40:00,
2013-01-11 21:45:00,60.5,60.2,30.26,SE,144,0.0,0.0,99,0.05,RA,,0.87,WeatherDisplay:10.37,2013-01-12 02:45:00,
2013-01-11 21:50:00,60.5,60.2,30.26,SE,144,0.0,0.0,99,0.06,RA,,0.88,WeatherDisplay:10.37,2013-01-12 02:50:00,
2013-01-11 21:55:00,60.5,60.2,30.26,SE,144,1.0,0.0,99,0.06,RA,,0.88,WeatherDisplay:10.37,2013-01-12 02:55:00,
2013-01-11 22:00:00,60.5,60.2,30.26,SE,144,0.0,0.0,99,0.07,RA,,0.89,WeatherDisplay:10.37,2013-01-12 03:00:00,
2013-01-11 22:05:00,60.6,60.3,30.26,SE,144,0.0,0.0,99,0.07,RA,,0.89,WeatherDisplay:10.37,2013-01-12 03:05:00,
2013-01-11 22:10:00,60.7,60.4,30.26,SE,144,0.0,0.1,99,0.07,CLR,,0.90,WeatherDisplay:10.37,2013-01-12 03:10:00,
2013-01-11 22:15:00,60.8,60.8,30.26,SE,144,0.0,0.0,100,0.07,RA,,0.90,WeatherDisplay:10.37,2013-01-12 03:15:00,
2013-01-11 22:20:00,60.8,60.8,30.26,SE,144,0.0,0.0,100,0.06,,,0.90,WeatherDisplay:10.37,2013-01-12 03:20:00,
2013-01-11 22:25:00,60.8,60.8,30.26,SE,144,2.3,2.3,100,0.05,CLR,,0.90,WeatherDisplay:10.37,2013-01-12 03:25:00,
2013-01-11 22:30:00,60.7,60.7,30.26,SE,144,0.0,2.0,100,0.00,RA,,0.91,WeatherDisplay:10.37,2013-01-12 03:30:00,
2013-01-11 22:35:00,60.7,60.4,30.26,SE,144,0.0,0.0,99,0.05,RA,,0.91,WeatherDisplay:10.37,2013-01-12 03:35:00,
2013-01-11 22:40:00,60.7,60.4,30.26,ESE,117,2.0,2.0,99,0.04,CLR,,0.91,WeatherDisplay:10.37,2013-01-12 03:40:00,
2013-01-11 22:45:00,60.7,60.4,30.26,ESE,117,0.0,0.0,99,0.04,CLR,,0.91,WeatherDisplay:10.37,2013-01-12 03:45:00,
2013-01-11 22:50:00,60.7,60.4,30.26,ESE,122,0.0,0.0,99,0.04,RA,,0.92,WeatherDisplay:10.37,2013-01-12 03:50:00,
2013-01-11 22:55:00,60.7,60.4,30.26,ESE,122,0.0,0.0,99,0.04,RA,,0.92,WeatherDisplay:10.37,2013-01-12 03:55:00,
2013-01-11 23:00:00,60.7,60.7,30.26,ESE,122,0.0,0.0,100,0.03,CLR,,0.92,WeatherDisplay:10.37,2013-01-12 04:00:00,
2013-01-11 23:05:00,60.8,60.8,30.26,ESE,122,0.0,0.0,100,0.03,CLR,,0.93,WeatherDisplay:10.37,2013-01-12 04:05:00,
2013-01-11 23:10:00,60.8,60.8,30.26,ESE,122,0.0,0.0,100,0.03,RA,,0.93,WeatherDisplay:10.37,2013-01-12 04:10:00,
2013-01-11 23:15:00,60.8,60.8,30.26,ESE,122,0.0,0.0,100,0.03,RA,,0.93,WeatherDisplay:10.37,2013-01-12 04:15:00,
2013-01-11 23:20:00,60.8,60.8,30.26,ESE,122,0.0,0.0,100,0.03,CLR,,0.93,WeatherDisplay:10.37,2013-01-12 04:20:00,
2013-01-11 23:25:00,60.9,60.9,30.26,ESE,122,0.0,0.0,100,0.03,CLR,,0.93,WeatherDisplay:10.37,2013-01-12 04:25:00,
2013-01-11 23:30:00,60.8,60.8,30.26,ESE,122,0.0,0.0,100,0.02,CLR,,0.93,WeatherDisplay:10.37,2013-01-12 04:30:00,
2013-01-11 23:35:00,60.9,60.9,30.26,ESE,122,0.0,0.0,100,0.02,CLR,,0.93,WeatherDisplay:10.37,2013-01-12 04:35:00,
2013-01-11 23:40:00,60.9,60.9,30.26,ESE,122,0.0,0.0,100,0.02,CLR,,0.93,WeatherDisplay:10.37,2013-01-12 04:40:00,
2013-01-11 23:45:00,60.8,60.8,30.26,ESE,121,0.0,0.0,100,0.02,CLR,,0.93,WeatherDisplay:10.37,2013-01-12 04:45:00,
2013-01-11 23:50:00,60.8,60.8,30.26,ESE,121,0.0,0.0,100,0.01,CLR,,0.93,WeatherDisplay:10.37,2013-01-12 04:50:00,
2013-01-11 23:55:00,60.8,60.5,30.26,ESE,121,0.0,0.0,99,0.01,CLR,,0.93,WeatherDisplay:10.37,2013-01-12 04:55:00,